sensor_id;sensor_type;location;lat;lon;timestamp;temperature;humidity
27200;DHT22;14714;48.106;11.546;2022-09-09T00:00:14;13.90;99.90
27200;DHT22;14714;48.106;11.546;2022-09-09T00:02:47;13.90;99.90
27200;DHT22;14714;48.106;11.546;2022-09-09T00:05:19;13.80;99.90
27200;DHT22;14714;48.106;11.546;2022-09-09T00:07:54;13.80;99.90
27200;DHT22;14714;48.106;11.546;2022-09-09T00:10:28;13.70;99.90
27200;DHT22;14714;48.106;11.546;2022-09-09T00:18:01;13.60;99.90
27200;DHT22;14714;48.106;11.546;2022-09-09T00:20:37;13.60;99.90
27200;DHT22;14714;48.106;11.546;2022-09-09T00:28:18;13.60;99.90
27200;DHT22;14714;48.106;11.546;2022-09-09T00:30:45;13.60;99.90
27200;DHT22;14714;48.106;11.546;2022-09-09T00:33:16;13.70;99.90
27200;DHT22;14714;48.106;11.546;2022-09-09T00:35:46;13.60;99.90
27200;DHT22;14714;48.106;11.546;2022-09-09T00:38:14;13.70;99.90
27200;DHT22;14714;48.106;11.546;2022-09-09T00:40:45;13.70;99.90
27200;DHT22;14714;48.106;11.546;2022-09-09T00:43:32;13.70;99.90
27200;DHT22;14714;48.106;11.546;2022-09-09T00:49:08;13.80;99.90
27200;DHT22;14714;48.106;11.546;2022-09-09T00:54:12;13.90;99.90
27200;DHT22;14714;48.106;11.546;2022-09-09T00:56:45;13.90;99.90
27200;DHT22;14714;48.106;11.546;2022-09-09T01:01:40;13.90;99.90
27200;DHT22;14714;48.106;11.546;2022-09-09T01:04:11;14.00;99.90
27200;DHT22;14714;48.106;11.546;2022-09-09T01:06:42;14.00;99.90
27200;DHT22;14714;48.106;11.546;2022-09-09T01:12:03;14.00;99.90
27200;DHT22;14714;48.106;11.546;2022-09-09T01:17:20;14.00;99.90
27200;DHT22;14714;48.106;11.546;2022-09-09T01:20:02;14.10;99.90
27200;DHT22;14714;48.106;11.546;2022-09-09T01:22:43;14.10;99.90
27200;DHT22;14714;48.106;11.546;2022-09-09T01:25:15;14.10;99.90
27200;DHT22;14714;48.106;11.546;2022-09-09T01:27:45;14.20;99.90
27200;DHT22;14714;48.106;11.546;2022-09-09T01:30:13;14.20;99.90
27200;DHT22;14714;48.106;11.546;2022-09-09T01:32:45;14.20;99.90
27200;DHT22;14714;48.106;11.546;2022-09-09T01:37:42;14.30;99.90
27200;DHT22;14714;48.106;11.546;2022-09-09T01:40:08;14.30;99.90
27200;DHT22;14714;48.106;11.546;2022-09-09T01:42:35;14.30;99.90
27200;DHT22;14714;48.106;11.546;2022-09-09T01:45:02;14.30;99.90
27200;DHT22;14714;48.106;11.546;2022-09-09T01:47:30;14.30;99.90
27200;DHT22;14714;48.106;11.546;2022-09-09T01:49:56;14.30;99.90
27200;DHT22;14714;48.106;11.546;2022-09-09T01:52:23;14.30;99.90
27200;DHT22;14714;48.106;11.546;2022-09-09T01:54:50;14.40;99.90
27200;DHT22;14714;48.106;11.546;2022-09-09T01:57:24;14.30;99.90
27200;DHT22;14714;48.106;11.546;2022-09-09T01:59:56;14.30;99.90
27200;DHT22;14714;48.106;11.546;2022-09-09T02:05:45;14.30;99.90
27200;DHT22;14714;48.106;11.546;2022-09-09T02:08:08;14.30;99.90
27200;DHT22;14714;48.106;11.546;2022-09-09T02:10:42;14.30;99.90
27200;DHT22;14714;48.106;11.546;2022-09-09T02:13:11;14.30;99.90
27200;DHT22;14714;48.106;11.546;2022-09-09T02:15:43;14.20;99.90
27200;DHT22;14714;48.106;11.546;2022-09-09T02:18:11;14.20;99.90
27200;DHT22;14714;48.106;11.546;2022-09-09T02:20:39;14.20;99.90
27200;DHT22;14714;48.106;11.546;2022-09-09T02:23:07;14.20;99.90
27200;DHT22;14714;48.106;11.546;2022-09-09T02:25:35;14.20;99.90
27200;DHT22;14714;48.106;11.546;2022-09-09T02:28:03;14.20;99.90
27200;DHT22;14714;48.106;11.546;2022-09-09T02:30:32;14.10;99.90
27200;DHT22;14714;48.106;11.546;2022-09-09T02:33:01;14.10;99.90
27200;DHT22;14714;48.106;11.546;2022-09-09T02:35:30;14.10;99.90
27200;DHT22;14714;48.106;11.546;2022-09-09T02:38:01;14.10;99.90
27200;DHT22;14714;48.106;11.546;2022-09-09T02:40:30;14.10;99.90
27200;DHT22;14714;48.106;11.546;2022-09-09T02:42:57;14.10;99.90
27200;DHT22;14714;48.106;11.546;2022-09-09T02:45:24;14.10;99.90
27200;DHT22;14714;48.106;11.546;2022-09-09T02:55:43;14.10;99.90
27200;DHT22;14714;48.106;11.546;2022-09-09T02:58:09;14.20;99.90
27200;DHT22;14714;48.106;11.546;2022-09-09T03:00:38;14.20;99.90
27200;DHT22;14714;48.106;11.546;2022-09-09T03:03:06;14.20;99.90
27200;DHT22;14714;48.106;11.546;2022-09-09T03:05:33;14.20;99.90
27200;DHT22;14714;48.106;11.546;2022-09-09T03:07:59;14.20;99.90
27200;DHT22;14714;48.106;11.546;2022-09-09T03:10:26;14.20;99.90
27200;DHT22;14714;48.106;11.546;2022-09-09T03:12:52;14.20;99.90
27200;DHT22;14714;48.106;11.546;2022-09-09T03:15:19;14.20;99.90
27200;DHT22;14714;48.106;11.546;2022-09-09T03:17:46;14.20;99.90
27200;DHT22;14714;48.106;11.546;2022-09-09T03:20:13;14.20;99.90
27200;DHT22;14714;48.106;11.546;2022-09-09T03:22:40;14.20;99.90
27200;DHT22;14714;48.106;11.546;2022-09-09T03:25:06;14.20;99.90
27200;DHT22;14714;48.106;11.546;2022-09-09T03:27:33;14.20;99.90
27200;DHT22;14714;48.106;11.546;2022-09-09T03:30:00;14.10;99.90
27200;DHT22;14714;48.106;11.546;2022-09-09T03:32:29;14.10;99.90
27200;DHT22;14714;48.106;11.546;2022-09-09T03:34:57;14.10;99.90
27200;DHT22;14714;48.106;11.546;2022-09-09T03:37:24;14.00;99.90
27200;DHT22;14714;48.106;11.546;2022-09-09T03:39:50;13.90;99.90
27200;DHT22;14714;48.106;11.546;2022-09-09T03:42:17;13.90;99.90
27200;DHT22;14714;48.106;11.546;2022-09-09T03:44:47;13.80;99.90
27200;DHT22;14714;48.106;11.546;2022-09-09T03:47:17;13.80;99.90
27200;DHT22;14714;48.106;11.546;2022-09-09T03:49:44;13.70;99.90
27200;DHT22;14714;48.106;11.546;2022-09-09T03:52:11;13.70;99.90
27200;DHT22;14714;48.106;11.546;2022-09-09T03:54:38;13.60;99.90
27200;DHT22;14714;48.106;11.546;2022-09-09T03:57:05;13.60;99.90
27200;DHT22;14714;48.106;11.546;2022-09-09T03:59:32;13.60;99.90
27200;DHT22;14714;48.106;11.546;2022-09-09T04:01:59;13.60;99.90
27200;DHT22;14714;48.106;11.546;2022-09-09T04:04:26;13.60;99.90
27200;DHT22;14714;48.106;11.546;2022-09-09T04:06:53;13.60;99.90
27200;DHT22;14714;48.106;11.546;2022-09-09T04:09:20;13.60;99.90
27200;DHT22;14714;48.106;11.546;2022-09-09T04:11:47;13.60;99.90
27200;DHT22;14714;48.106;11.546;2022-09-09T04:14:13;13.70;99.90
27200;DHT22;14714;48.106;11.546;2022-09-09T04:16:40;13.60;99.90
27200;DHT22;14714;48.106;11.546;2022-09-09T04:19:09;13.70;99.90
27200;DHT22;14714;48.106;11.546;2022-09-09T04:21:41;13.70;99.90
27200;DHT22;14714;48.106;11.546;2022-09-09T04:24:08;13.70;99.90
27200;DHT22;14714;48.106;11.546;2022-09-09T04:26:35;13.70;99.90
27200;DHT22;14714;48.106;11.546;2022-09-09T04:29:03;13.70;99.90
27200;DHT22;14714;48.106;11.546;2022-09-09T04:31:30;13.70;99.90
27200;DHT22;14714;48.106;11.546;2022-09-09T04:33:57;13.70;99.90
27200;DHT22;14714;48.106;11.546;2022-09-09T04:36:23;13.70;99.90
27200;DHT22;14714;48.106;11.546;2022-09-09T04:38:50;13.70;99.90
27200;DHT22;14714;48.106;11.546;2022-09-09T04:41:17;13.70;99.90
27200;DHT22;14714;48.106;11.546;2022-09-09T04:43:43;13.60;99.90
27200;DHT22;14714;48.106;11.546;2022-09-09T04:46:10;13.60;99.90
27200;DHT22;14714;48.106;11.546;2022-09-09T04:48:37;13.60;99.90
27200;DHT22;14714;48.106;11.546;2022-09-09T04:51:05;13.60;99.90
27200;DHT22;14714;48.106;11.546;2022-09-09T04:53:32;13.60;99.90
27200;DHT22;14714;48.106;11.546;2022-09-09T04:56:01;13.60;99.90
27200;DHT22;14714;48.106;11.546;2022-09-09T04:58:28;13.50;99.90
27200;DHT22;14714;48.106;11.546;2022-09-09T05:00:55;13.50;99.90
27200;DHT22;14714;48.106;11.546;2022-09-09T05:03:22;13.50;99.90
27200;DHT22;14714;48.106;11.546;2022-09-09T05:05:48;13.50;99.90
27200;DHT22;14714;48.106;11.546;2022-09-09T05:08:15;13.50;99.90
27200;DHT22;14714;48.106;11.546;2022-09-09T05:10:42;13.50;99.90
27200;DHT22;14714;48.106;11.546;2022-09-09T05:13:08;13.50;99.90
27200;DHT22;14714;48.106;11.546;2022-09-09T05:15:35;13.60;99.90
27200;DHT22;14714;48.106;11.546;2022-09-09T05:18:02;13.50;99.90
27200;DHT22;14714;48.106;11.546;2022-09-09T05:20:29;13.60;99.90
27200;DHT22;14714;48.106;11.546;2022-09-09T05:22:56;13.60;99.90
27200;DHT22;14714;48.106;11.546;2022-09-09T05:25:23;13.60;99.90
27200;DHT22;14714;48.106;11.546;2022-09-09T05:27:52;13.70;99.90
27200;DHT22;14714;48.106;11.546;2022-09-09T05:30:20;13.70;99.90
27200;DHT22;14714;48.106;11.546;2022-09-09T05:32:48;13.70;99.90
27200;DHT22;14714;48.106;11.546;2022-09-09T05:35:15;13.70;99.90
27200;DHT22;14714;48.106;11.546;2022-09-09T05:37:42;13.70;99.90
27200;DHT22;14714;48.106;11.546;2022-09-09T05:40:09;13.80;99.90
27200;DHT22;14714;48.106;11.546;2022-09-09T05:42:37;13.80;99.90
27200;DHT22;14714;48.106;11.546;2022-09-09T05:45:07;13.90;99.90
27200;DHT22;14714;48.106;11.546;2022-09-09T05:47:34;13.90;99.90
27200;DHT22;14714;48.106;11.546;2022-09-09T05:50:02;13.90;99.90
27200;DHT22;14714;48.106;11.546;2022-09-09T05:52:28;13.90;99.90
27200;DHT22;14714;48.106;11.546;2022-09-09T05:54:55;13.90;99.90
27200;DHT22;14714;48.106;11.546;2022-09-09T05:57:23;14.00;99.90
27200;DHT22;14714;48.106;11.546;2022-09-09T05:59:50;14.00;99.90
27200;DHT22;14714;48.106;11.546;2022-09-09T06:02:16;14.10;99.90
27200;DHT22;14714;48.106;11.546;2022-09-09T06:04:43;14.10;99.90
27200;DHT22;14714;48.106;11.546;2022-09-09T06:07:10;14.20;99.90
27200;DHT22;14714;48.106;11.546;2022-09-09T06:09:36;14.30;99.90
27200;DHT22;14714;48.106;11.546;2022-09-09T06:12:03;14.30;99.90
27200;DHT22;14714;48.106;11.546;2022-09-09T06:14:30;14.40;99.90
27200;DHT22;14714;48.106;11.546;2022-09-09T06:16:57;14.50;99.90
27200;DHT22;14714;48.106;11.546;2022-09-09T06:19:23;14.60;99.90
27200;DHT22;14714;48.106;11.546;2022-09-09T06:21:52;14.70;99.90
27200;DHT22;14714;48.106;11.546;2022-09-09T06:24:19;14.70;99.90
27200;DHT22;14714;48.106;11.546;2022-09-09T06:26:46;14.80;99.90
27200;DHT22;14714;48.106;11.546;2022-09-09T06:29:13;14.80;99.90
27200;DHT22;14714;48.106;11.546;2022-09-09T06:31:39;14.90;99.90
27200;DHT22;14714;48.106;11.546;2022-09-09T06:34:08;14.90;99.90
27200;DHT22;14714;48.106;11.546;2022-09-09T06:36:35;15.00;99.90
27200;DHT22;14714;48.106;11.546;2022-09-09T06:39:03;15.00;99.90
27200;DHT22;14714;48.106;11.546;2022-09-09T06:41:30;15.00;99.90
27200;DHT22;14714;48.106;11.546;2022-09-09T06:43:57;15.10;99.90
27200;DHT22;14714;48.106;11.546;2022-09-09T06:46:25;15.10;99.90
27200;DHT22;14714;48.106;11.546;2022-09-09T06:48:55;15.20;99.90
27200;DHT22;14714;48.106;11.546;2022-09-09T06:51:23;15.30;99.90
27200;DHT22;14714;48.106;11.546;2022-09-09T06:53:50;15.40;99.90
27200;DHT22;14714;48.106;11.546;2022-09-09T06:56:18;15.50;99.90
27200;DHT22;14714;48.106;11.546;2022-09-09T06:58:46;15.70;99.90
27200;DHT22;14714;48.106;11.546;2022-09-09T07:01:13;15.80;99.90
27200;DHT22;14714;48.106;11.546;2022-09-09T07:03:41;15.90;99.90
27200;DHT22;14714;48.106;11.546;2022-09-09T07:06:09;16.00;99.90
27200;DHT22;14714;48.106;11.546;2022-09-09T07:08:40;16.20;99.90
27200;DHT22;14714;48.106;11.546;2022-09-09T07:11:08;16.20;99.90
27200;DHT22;14714;48.106;11.546;2022-09-09T07:13:38;16.30;99.90
27200;DHT22;14714;48.106;11.546;2022-09-09T07:16:05;16.40;99.90
27200;DHT22;14714;48.106;11.546;2022-09-09T07:18:32;16.40;99.90
27200;DHT22;14714;48.106;11.546;2022-09-09T07:21:00;16.40;99.90
27200;DHT22;14714;48.106;11.546;2022-09-09T07:23:26;16.50;99.90
27200;DHT22;14714;48.106;11.546;2022-09-09T07:25:53;16.50;99.90
27200;DHT22;14714;48.106;11.546;2022-09-09T07:28:20;16.40;99.90
27200;DHT22;14714;48.106;11.546;2022-09-09T07:31:05;16.40;99.90
27200;DHT22;14714;48.106;11.546;2022-09-09T07:33:33;16.40;99.90
27200;DHT22;14714;48.106;11.546;2022-09-09T07:36:04;16.40;99.90
27200;DHT22;14714;48.106;11.546;2022-09-09T07:38:33;16.50;99.90
27200;DHT22;14714;48.106;11.546;2022-09-09T07:41:04;16.60;99.90
27200;DHT22;14714;48.106;11.546;2022-09-09T07:43:31;16.70;99.90
27200;DHT22;14714;48.106;11.546;2022-09-09T07:45:59;16.90;99.90
27200;DHT22;14714;48.106;11.546;2022-09-09T07:48:28;17.00;99.90
27200;DHT22;14714;48.106;11.546;2022-09-09T07:51:11;17.30;99.90
27200;DHT22;14714;48.106;11.546;2022-09-09T07:53:38;17.50;99.90
27200;DHT22;14714;48.106;11.546;2022-09-09T07:56:06;17.60;99.90
27200;DHT22;14714;48.106;11.546;2022-09-09T07:58:33;17.80;99.90
27200;DHT22;14714;48.106;11.546;2022-09-09T08:01:11;17.90;99.90
27200;DHT22;14714;48.106;11.546;2022-09-09T08:03:38;17.90;99.90
27200;DHT22;14714;48.106;11.546;2022-09-09T08:06:06;18.00;99.90
27200;DHT22;14714;48.106;11.546;2022-09-09T08:08:34;18.10;99.90
27200;DHT22;14714;48.106;11.546;2022-09-09T08:11:14;18.20;99.90
27200;DHT22;14714;48.106;11.546;2022-09-09T08:13:41;18.20;99.90
27200;DHT22;14714;48.106;11.546;2022-09-09T08:19:04;18.40;99.90
27200;DHT22;14714;48.106;11.546;2022-09-09T08:21:34;18.50;99.90
27200;DHT22;14714;48.106;11.546;2022-09-09T08:24:03;18.60;99.90
27200;DHT22;14714;48.106;11.546;2022-09-09T08:26:35;18.70;99.90
27200;DHT22;14714;48.106;11.546;2022-09-09T08:29:03;18.70;99.90
27200;DHT22;14714;48.106;11.546;2022-09-09T08:31:30;18.80;99.90
27200;DHT22;14714;48.106;11.546;2022-09-09T08:33:58;18.90;99.90
27200;DHT22;14714;48.106;11.546;2022-09-09T08:36:31;19.10;99.90
27200;DHT22;14714;48.106;11.546;2022-09-09T08:39:00;19.20;99.90
27200;DHT22;14714;48.106;11.546;2022-09-09T08:46:57;19.20;99.90
27200;DHT22;14714;48.106;11.546;2022-09-09T08:51:54;19.00;99.90
27200;DHT22;14714;48.106;11.546;2022-09-09T08:54:21;18.80;99.90
27200;DHT22;14714;48.106;11.546;2022-09-09T08:57:11;18.70;99.90
27200;DHT22;14714;48.106;11.546;2022-09-09T08:59:41;18.60;99.90
27200;DHT22;14714;48.106;11.546;2022-09-09T09:04:56;18.50;99.90
27200;DHT22;14714;48.106;11.546;2022-09-09T09:07:35;18.40;99.90
27200;DHT22;14714;48.106;11.546;2022-09-09T09:10:12;18.40;99.90
27200;DHT22;14714;48.106;11.546;2022-09-09T09:13:01;18.50;99.90
27200;DHT22;14714;48.106;11.546;2022-09-09T09:15:30;18.50;99.90
27200;DHT22;14714;48.106;11.546;2022-09-09T09:17:58;18.60;99.90
27200;DHT22;14714;48.106;11.546;2022-09-09T09:20:38;18.80;99.90
27200;DHT22;14714;48.106;11.546;2022-09-09T09:23:09;18.90;99.90
27200;DHT22;14714;48.106;11.546;2022-09-09T09:25:39;19.10;99.90
27200;DHT22;14714;48.106;11.546;2022-09-09T09:28:13;19.30;99.90
27200;DHT22;14714;48.106;11.546;2022-09-09T09:30:50;19.50;99.90
27200;DHT22;14714;48.106;11.546;2022-09-09T09:35:45;20.10;99.90
27200;DHT22;14714;48.106;11.546;2022-09-09T09:38:19;20.30;99.90
27200;DHT22;14714;48.106;11.546;2022-09-09T09:41:08;20.40;99.90
27200;DHT22;14714;48.106;11.546;2022-09-09T09:43:36;20.40;99.90
27200;DHT22;14714;48.106;11.546;2022-09-09T09:46:03;20.30;99.90
27200;DHT22;14714;48.106;11.546;2022-09-09T09:48:43;20.30;99.90
27200;DHT22;14714;48.106;11.546;2022-09-09T09:51:13;20.20;99.90
27200;DHT22;14714;48.106;11.546;2022-09-09T09:53:42;20.10;99.90
27200;DHT22;14714;48.106;11.546;2022-09-09T09:56:09;20.00;99.90
27200;DHT22;14714;48.106;11.546;2022-09-09T09:58:49;19.90;99.90
27200;DHT22;14714;48.106;11.546;2022-09-09T10:01:23;19.80;99.90
27200;DHT22;14714;48.106;11.546;2022-09-09T10:03:51;19.80;99.90
27200;DHT22;14714;48.106;11.546;2022-09-09T10:06:29;19.70;99.90
27200;DHT22;14714;48.106;11.546;2022-09-09T10:08:56;19.70;99.90
27200;DHT22;14714;48.106;11.546;2022-09-09T10:14:16;19.60;99.90
27200;DHT22;14714;48.106;11.546;2022-09-09T10:19:27;19.60;99.90
27200;DHT22;14714;48.106;11.546;2022-09-09T10:40:19;19.10;99.90
27200;DHT22;14714;48.106;11.546;2022-09-09T10:42:47;19.20;99.90
27200;DHT22;14714;48.106;11.546;2022-09-09T10:50:28;19.40;99.90
27200;DHT22;14714;48.106;11.546;2022-09-09T10:55:43;19.50;99.90
27200;DHT22;14714;48.106;11.546;2022-09-09T10:58:17;19.60;99.90
27200;DHT22;14714;48.106;11.546;2022-09-09T11:00:48;19.80;99.90
27200;DHT22;14714;48.106;11.546;2022-09-09T11:03:27;19.90;99.90
27200;DHT22;14714;48.106;11.546;2022-09-09T11:05:57;20.10;99.90
27200;DHT22;14714;48.106;11.546;2022-09-09T11:08:26;20.30;99.90
27200;DHT22;14714;48.106;11.546;2022-09-09T11:15:54;20.90;99.90
27200;DHT22;14714;48.106;11.546;2022-09-09T11:18:24;21.10;99.90
27200;DHT22;14714;48.106;11.546;2022-09-09T11:20:52;21.30;99.90
27200;DHT22;14714;48.106;11.546;2022-09-09T11:23:23;21.40;99.90
27200;DHT22;14714;48.106;11.546;2022-09-09T11:25:53;21.60;99.90
27200;DHT22;14714;48.106;11.546;2022-09-09T11:29:24;21.70;99.90
27200;DHT22;14714;48.106;11.546;2022-09-09T11:31:26;21.80;99.90
27200;DHT22;14714;48.106;11.546;2022-09-09T11:34:13;22.00;99.90
27200;DHT22;14714;48.106;11.546;2022-09-09T11:36:51;22.00;99.90
27200;DHT22;14714;48.106;11.546;2022-09-09T11:44:39;22.50;99.90
27200;DHT22;14714;48.106;11.546;2022-09-09T11:47:19;22.60;99.90
27200;DHT22;14714;48.106;11.546;2022-09-09T11:49:46;22.60;99.90
27200;DHT22;14714;48.106;11.546;2022-09-09T11:52:24;22.60;99.90
27200;DHT22;14714;48.106;11.546;2022-09-09T11:54:54;22.60;99.90
27200;DHT22;14714;48.106;11.546;2022-09-09T11:57:25;22.70;99.90
27200;DHT22;14714;48.106;11.546;2022-09-09T11:59:56;22.70;99.90
27200;DHT22;14714;48.106;11.546;2022-09-09T12:02:27;22.80;99.90
27200;DHT22;14714;48.106;11.546;2022-09-09T12:07:37;22.70;99.90
27200;DHT22;14714;48.106;11.546;2022-09-09T12:12:51;22.70;99.90
27200;DHT22;14714;48.106;11.546;2022-09-09T12:15:19;22.70;99.90
27200;DHT22;14714;48.106;11.546;2022-09-09T12:17:48;22.70;99.90
27200;DHT22;14714;48.106;11.546;2022-09-09T12:20:25;22.70;99.90
27200;DHT22;14714;48.106;11.546;2022-09-09T12:28:27;22.70;99.90
27200;DHT22;14714;48.106;11.546;2022-09-09T12:33:49;22.70;99.90
27200;DHT22;14714;48.106;11.546;2022-09-09T12:36:17;22.70;99.90
27200;DHT22;14714;48.106;11.546;2022-09-09T12:38:45;22.80;99.90
27200;DHT22;14714;48.106;11.546;2022-09-09T12:41:26;22.80;99.90
27200;DHT22;14714;48.106;11.546;2022-09-09T12:44:05;22.80;99.90
27200;DHT22;14714;48.106;11.546;2022-09-09T12:46:34;22.90;99.90
27200;DHT22;14714;48.106;11.546;2022-09-09T12:49:03;23.00;99.90
27200;DHT22;14714;48.106;11.546;2022-09-09T12:51:31;23.00;99.90
27200;DHT22;14714;48.106;11.546;2022-09-09T12:53:59;23.10;99.90
27200;DHT22;14714;48.106;11.546;2022-09-09T12:56:27;23.20;99.30
27200;DHT22;14714;48.106;11.546;2022-09-09T12:58:56;23.10;98.80
27200;DHT22;14714;48.106;11.546;2022-09-09T13:01:27;23.10;99.60
27200;DHT22;14714;48.106;11.546;2022-09-09T13:03:55;22.90;99.20
27200;DHT22;14714;48.106;11.546;2022-09-09T13:06:25;22.90;99.20
27200;DHT22;14714;48.106;11.546;2022-09-09T13:08:58;22.80;99.40
27200;DHT22;14714;48.106;11.546;2022-09-09T13:11:26;22.60;98.70
27200;DHT22;14714;48.106;11.546;2022-09-09T13:13:55;22.60;99.60
27200;DHT22;14714;48.106;11.546;2022-09-09T13:16:24;22.50;98.50
27200;DHT22;14714;48.106;11.546;2022-09-09T13:18:52;22.40;99.90
27200;DHT22;14714;48.106;11.546;2022-09-09T13:21:19;22.40;99.90
27200;DHT22;14714;48.106;11.546;2022-09-09T13:23:49;22.30;99.90
27200;DHT22;14714;48.106;11.546;2022-09-09T13:28:47;22.30;99.60
27200;DHT22;14714;48.106;11.546;2022-09-09T13:31:22;22.30;99.60
27200;DHT22;14714;48.106;11.546;2022-09-09T13:33:49;22.20;99.90
27200;DHT22;14714;48.106;11.546;2022-09-09T13:36:16;22.10;99.70
27200;DHT22;14714;48.106;11.546;2022-09-09T13:38:54;22.00;99.90
27200;DHT22;14714;48.106;11.546;2022-09-09T13:41:35;22.00;99.90
27200;DHT22;14714;48.106;11.546;2022-09-09T13:44:02;21.90;99.90
27200;DHT22;14714;48.106;11.546;2022-09-09T13:51:36;21.70;99.80
27200;DHT22;14714;48.106;11.546;2022-09-09T13:54:09;21.60;99.90
27200;DHT22;14714;48.106;11.546;2022-09-09T13:56:36;21.50;99.90
27200;DHT22;14714;48.106;11.546;2022-09-09T13:59:04;21.50;99.90
27200;DHT22;14714;48.106;11.546;2022-09-09T14:01:31;21.40;99.90
27200;DHT22;14714;48.106;11.546;2022-09-09T14:04:01;21.30;99.90
27200;DHT22;14714;48.106;11.546;2022-09-09T14:06:27;21.20;99.90
27200;DHT22;14714;48.106;11.546;2022-09-09T14:08:55;21.10;99.90
27200;DHT22;14714;48.106;11.546;2022-09-09T14:11:22;21.10;99.90
27200;DHT22;14714;48.106;11.546;2022-09-09T14:13:48;21.10;99.90
27200;DHT22;14714;48.106;11.546;2022-09-09T14:16:18;21.10;99.90
27200;DHT22;14714;48.106;11.546;2022-09-09T14:18:45;21.10;99.90
27200;DHT22;14714;48.106;11.546;2022-09-09T14:21:12;21.00;99.90
27200;DHT22;14714;48.106;11.546;2022-09-09T14:23:39;21.00;99.90
27200;DHT22;14714;48.106;11.546;2022-09-09T14:26:06;21.00;99.90
27200;DHT22;14714;48.106;11.546;2022-09-09T14:28:33;21.00;99.90
27200;DHT22;14714;48.106;11.546;2022-09-09T14:31:19;21.00;99.90
27200;DHT22;14714;48.106;11.546;2022-09-09T14:33:47;20.90;99.90
27200;DHT22;14714;48.106;11.546;2022-09-09T14:36:14;20.80;99.90
27200;DHT22;14714;48.106;11.546;2022-09-09T14:38:41;20.80;99.90
27200;DHT22;14714;48.106;11.546;2022-09-09T14:41:09;20.70;99.90
27200;DHT22;14714;48.106;11.546;2022-09-09T14:43:39;20.70;99.90
27200;DHT22;14714;48.106;11.546;2022-09-09T14:46:07;20.50;99.90
27200;DHT22;14714;48.106;11.546;2022-09-09T14:48:34;20.40;99.90
27200;DHT22;14714;48.106;11.546;2022-09-09T14:51:07;20.40;99.90
27200;DHT22;14714;48.106;11.546;2022-09-09T14:53:34;20.30;99.90
27200;DHT22;14714;48.106;11.546;2022-09-09T14:56:05;20.30;99.90
27200;DHT22;14714;48.106;11.546;2022-09-09T14:58:32;20.20;99.90
27200;DHT22;14714;48.106;11.546;2022-09-09T15:01:03;20.20;99.90
27200;DHT22;14714;48.106;11.546;2022-09-09T15:03:30;20.10;99.90
27200;DHT22;14714;48.106;11.546;2022-09-09T15:05:57;20.10;99.90
27200;DHT22;14714;48.106;11.546;2022-09-09T15:08:25;20.10;99.90
27200;DHT22;14714;48.106;11.546;2022-09-09T15:10:58;20.10;99.90
27200;DHT22;14714;48.106;11.546;2022-09-09T15:13:25;20.00;99.90
27200;DHT22;14714;48.106;11.546;2022-09-09T15:15:52;20.00;99.90
27200;DHT22;14714;48.106;11.546;2022-09-09T15:18:20;20.00;99.90
27200;DHT22;14714;48.106;11.546;2022-09-09T15:20:47;20.00;99.90
27200;DHT22;14714;48.106;11.546;2022-09-09T15:23:14;20.00;99.90
27200;DHT22;14714;48.106;11.546;2022-09-09T15:25:53;19.90;99.90
27200;DHT22;14714;48.106;11.546;2022-09-09T15:28:21;19.80;99.90
27200;DHT22;14714;48.106;11.546;2022-09-09T15:30:48;19.70;99.90
27200;DHT22;14714;48.106;11.546;2022-09-09T15:33:15;19.70;99.90
27200;DHT22;14714;48.106;11.546;2022-09-09T15:35:42;19.60;99.90
27200;DHT22;14714;48.106;11.546;2022-09-09T15:38:08;19.50;99.90
27200;DHT22;14714;48.106;11.546;2022-09-09T15:40:35;19.40;99.90
27200;DHT22;14714;48.106;11.546;2022-09-09T15:43:02;19.30;99.90
27200;DHT22;14714;48.106;11.546;2022-09-09T15:45:30;19.20;99.90
27200;DHT22;14714;48.106;11.546;2022-09-09T15:48:02;19.20;99.90
27200;DHT22;14714;48.106;11.546;2022-09-09T15:50:29;19.10;99.90
27200;DHT22;14714;48.106;11.546;2022-09-09T15:52:59;19.20;99.90
27200;DHT22;14714;48.106;11.546;2022-09-09T15:55:26;19.20;99.90
27200;DHT22;14714;48.106;11.546;2022-09-09T15:57:53;19.30;99.90
27200;DHT22;14714;48.106;11.546;2022-09-09T16:00:19;19.40;99.90
27200;DHT22;14714;48.106;11.546;2022-09-09T16:02:46;19.50;99.90
27200;DHT22;14714;48.106;11.546;2022-09-09T16:05:13;19.50;99.90
27200;DHT22;14714;48.106;11.546;2022-09-09T16:07:40;19.50;99.90
27200;DHT22;14714;48.106;11.546;2022-09-09T16:10:09;19.50;99.90
27200;DHT22;14714;48.106;11.546;2022-09-09T16:12:35;19.40;99.90
27200;DHT22;14714;48.106;11.546;2022-09-09T16:15:03;19.30;99.90
27200;DHT22;14714;48.106;11.546;2022-09-09T16:17:30;19.20;99.90
27200;DHT22;14714;48.106;11.546;2022-09-09T16:19:56;19.10;99.90
27200;DHT22;14714;48.106;11.546;2022-09-09T16:22:24;19.10;99.90
27200;DHT22;14714;48.106;11.546;2022-09-09T16:24:50;19.10;99.90
27200;DHT22;14714;48.106;11.546;2022-09-09T16:27:17;19.10;99.90
27200;DHT22;14714;48.106;11.546;2022-09-09T16:29:44;19.10;99.90
27200;DHT22;14714;48.106;11.546;2022-09-09T16:32:11;19.10;99.90
27200;DHT22;14714;48.106;11.546;2022-09-09T16:34:38;19.10;99.90
27200;DHT22;14714;48.106;11.546;2022-09-09T16:37:05;19.20;99.90
27200;DHT22;14714;48.106;11.546;2022-09-09T16:39:31;19.20;99.90
27200;DHT22;14714;48.106;11.546;2022-09-09T16:41:58;19.20;99.90
27200;DHT22;14714;48.106;11.546;2022-09-09T16:44:26;19.20;99.90
27200;DHT22;14714;48.106;11.546;2022-09-09T16:46:52;19.10;99.90
27200;DHT22;14714;48.106;11.546;2022-09-09T16:49:26;19.00;99.90
27200;DHT22;14714;48.106;11.546;2022-09-09T16:51:56;19.00;99.90
27200;DHT22;14714;48.106;11.546;2022-09-09T16:54:23;18.80;99.90
27200;DHT22;14714;48.106;11.546;2022-09-09T16:56:53;18.70;99.90
27200;DHT22;14714;48.106;11.546;2022-09-09T16:59:20;18.50;99.90
27200;DHT22;14714;48.106;11.546;2022-09-09T17:01:48;18.40;99.90
27200;DHT22;14714;48.106;11.546;2022-09-09T17:04:16;18.30;99.90
27200;DHT22;14714;48.106;11.546;2022-09-09T17:06:47;18.10;99.90
27200;DHT22;14714;48.106;11.546;2022-09-09T17:09:15;18.00;99.90
27200;DHT22;14714;48.106;11.546;2022-09-09T17:11:42;17.90;99.90
27200;DHT22;14714;48.106;11.546;2022-09-09T17:14:11;17.70;99.90
27200;DHT22;14714;48.106;11.546;2022-09-09T17:16:37;17.60;99.90
27200;DHT22;14714;48.106;11.546;2022-09-09T17:19:06;17.50;99.90
27200;DHT22;14714;48.106;11.546;2022-09-09T17:21:35;17.30;99.90
27200;DHT22;14714;48.106;11.546;2022-09-09T17:24:20;17.20;99.90